Time;durP1;ratioP1;P1;durP2;ratioP2;P2;SDS_P1;SDS_P2;PMS_P1;PMS_P2;Temp;Humidity;BMP_temperature;BMP_pressure;BME280_temperature;BME280_humidity;BME280_pressure;Samples;Min_cycle;Max_cycle;Signal;HPM_P1;HPM_P2
2024/03/01 00:02:14;;;;;;;9.13;6.23;;;9.60;99.90;;;;;;5061979;28;20445;-81
2024/03/01 00:04:42;;;;;;;10.10;6.70;;;9.60;99.90;;;;;;5055025;28;20980;-80
2024/03/01 00:07:08;;;;;;;11.00;7.27;;;9.60;99.90;;;;;;5064498;28;20819;-81
2024/03/01 00:09:35;;;;;;;10.00;6.50;;;9.70;99.90;;;;;;5059925;28;20465;-82
2024/03/01 00:12:02;;;;;;;9.90;7.13;;;9.70;99.90;;;;;;5064914;28;20459;-82
2024/03/01 00:14:29;;;;;;;12.10;7.77;;;9.70;99.90;;;;;;5055514;28;20478;-82
2024/03/01 00:16:56;;;;;;;11.43;7.63;;;9.80;99.90;;;;;;5059863;28;20455;-81
2024/03/01 00:19:24;;;;;;;11.67;7.20;;;9.80;99.90;;;;;;5063934;28;20484;-81
2024/03/01 00:21:51;;;;;;;14.40;7.50;;;9.80;99.90;;;;;;5060406;28;20443;-81
2024/03/01 00:24:17;;;;;;;16.43;7.17;;;9.80;99.90;;;;;;5063354;28;20526;-80
2024/03/01 00:26:46;;;;;;;11.93;7.70;;;9.80;99.90;;;;;;5057635;28;20450;-81
2024/03/01 00:29:12;;;;;;;10.77;7.83;;;9.80;99.90;;;;;;5062095;28;20469;-81
2024/03/01 00:31:39;;;;;;;10.60;7.20;;;9.80;99.90;;;;;;5051826;28;20461;-81
2024/03/01 00:34:06;;;;;;;11.07;8.67;;;9.80;99.90;;;;;;5055960;28;20474;-82
2024/03/01 00:36:34;;;;;;;14.30;9.23;;;9.80;99.90;;;;;;5052179;28;20452;-81
2024/03/01 00:39:01;;;;;;;11.10;7.47;;;9.80;99.90;;;;;;5052007;28;20464;-82
2024/03/01 00:41:28;;;;;;;12.57;7.37;;;9.80;99.90;;;;;;5052807;28;20456;-82
2024/03/01 00:43:55;;;;;;;11.57;7.90;;;9.90;99.90;;;;;;5051050;28;20487;-81
2024/03/01 00:46:22;;;;;;;12.63;8.23;;;9.90;99.90;;;;;;5050397;28;20957;-81
2024/03/01 00:48:49;;;;;;;10.90;7.70;;;9.80;99.90;;;;;;5051834;28;20459;-82
2024/03/01 00:51:16;;;;;;;12.20;7.33;;;9.90;99.90;;;;;;5053339;28;20491;-81
2024/03/01 00:53:45;;;;;;;11.23;7.00;;;9.80;99.90;;;;;;5058063;28;20565;-81
2024/03/01 00:56:12;;;;;;;13.10;8.07;;;9.90;99.90;;;;;;5061981;28;20440;-82
2024/03/01 00:58:39;;;;;;;13.00;8.20;;;9.80;99.90;;;;;;5056878;28;20444;-81
2024/03/01 01:01:06;;;;;;;12.53;7.60;;;9.90;99.90;;;;;;5056383;28;20855;-82
2024/03/01 01:03:33;;;;;;;14.23;8.10;;;9.90;99.90;;;;;;5055702;28;20478;-80
2024/03/01 01:06:00;;;;;;;9.53;7.80;;;9.80;99.90;;;;;;5054592;28;20452;-81
2024/03/01 01:08:27;;;;;;;11.47;7.60;;;9.80;99.90;;;;;;5056974;28;20507;-82
2024/03/01 01:10:55;;;;;;;12.10;7.60;;;9.80;99.90;;;;;;5063074;28;20839;-79
2024/03/01 01:13:22;;;;;;;12.60;8.40;;;9.70;99.90;;;;;;5055448;28;20472;-81
2024/03/01 01:15:49;;;;;;;14.70;8.80;;;9.60;99.90;;;;;;5057908;28;20459;-82
2024/03/01 01:18:16;;;;;;;12.50;9.20;;;9.50;99.90;;;;;;5061724;28;20484;-82
2024/03/01 01:20:44;;;;;;;12.93;7.87;;;9.50;99.90;;;;;;5070378;28;20487;-81
2024/03/01 01:23:11;;;;;;;18.27;9.03;;;9.50;99.90;;;;;;5072134;28;20482;-81
2024/03/01 01:25:38;;;;;;;17.40;8.60;;;9.30;99.90;;;;;;5072292;28;20478;-81
2024/03/01 01:28:07;;;;;;;12.20;7.83;;;9.20;99.90;;;;;;5067620;28;20457;-81
2024/03/01 01:30:33;;;;;;;15.17;9.20;;;9.10;99.90;;;;;;5067830;28;20470;-83
2024/03/01 01:33:00;;;;;;;13.33;8.80;;;9.10;99.90;;;;;;5059376;28;20471;-83
2024/03/01 01:35:27;;;;;;;15.50;8.60;;;9.00;99.90;;;;;;5059654;28;20490;-83
2024/03/01 01:37:55;;;;;;;14.27;9.10;;;9.00;99.90;;;;;;5058929;28;20463;-82
2024/03/01 01:40:22;;;;;;;11.77;8.40;;;8.90;99.90;;;;;;5060236;28;20938;-83
2024/03/01 01:42:51;;;;;;;14.30;8.50;;;8.70;99.90;;;;;;5059070;28;20483;-83
2024/03/01 01:45:19;;;;;;;13.80;8.10;;;8.70;99.90;;;;;;5059536;28;20459;-82
2024/03/01 01:47:48;;;;;;;14.07;8.80;;;8.70;99.90;;;;;;5058563;28;20483;-83
2024/03/01 01:50:15;;;;;;;15.73;8.23;;;8.50;99.90;;;;;;5060599;28;20451;-84
2024/03/01 01:52:43;;;;;;;13.47;7.97;;;8.50;99.90;;;;;;5059421;28;20968;-83
2024/03/01 01:55:12;;;;;;;16.53;9.87;;;8.50;99.90;;;;;;5060300;28;20465;-82
2024/03/01 01:57:40;;;;;;;12.23;8.60;;;8.50;99.90;;;;;;5060668;28;20482;-83
2024/03/01 02:00:10;;;;;;;12.77;8.50;;;8.50;99.90;;;;;;5062149;28;20495;-82
2024/03/01 02:02:38;;;;;;;12.10;8.57;;;8.40;99.90;;;;;;5061255;28;20550;-82
2024/03/01 02:05:06;;;;;;;15.43;10.00;;;8.40;99.90;;;;;;5062770;28;20509;-82
2024/03/01 02:07:33;;;;;;;11.87;8.23;;;8.30;99.90;;;;;;5065372;28;20483;-82
2024/03/01 02:10:00;;;;;;;14.70;9.00;;;8.30;99.90;;;;;;5061540;28;20448;-81
2024/03/01 02:12:27;;;;;;;13.83;9.43;;;8.30;99.90;;;;;;5060907;28;20443;-81
2024/03/01 02:14:54;;;;;;;15.20;8.73;;;8.20;99.90;;;;;;5060908;28;20477;-82
2024/03/01 02:17:21;;;;;;;14.40;9.40;;;8.20;99.90;;;;;;5061111;28;20495;-82
2024/03/01 02:19:49;;;;;;;15.43;8.63;;;8.20;99.90;;;;;;5060981;28;20514;-82
2024/03/01 02:22:20;;;;;;;12.80;8.27;;;8.10;99.90;;;;;;5060470;28;20451;-83
2024/03/01 02:24:48;;;;;;;15.07;8.70;;;8.10;99.90;;;;;;5052036;28;20503;-84
2024/03/01 02:27:15;;;;;;;13.57;9.00;;;8.10;99.90;;;;;;5059234;28;20471;-83
2024/03/01 02:29:42;;;;;;;14.23;8.00;;;8.10;99.90;;;;;;5059788;28;20449;-82
2024/03/01 02:32:08;;;;;;;13.63;8.23;;;8.10;99.90;;;;;;5060303;28;20804;-82
2024/03/01 02:34:35;;;;;;;14.80;8.77;;;8.10;99.90;;;;;;5060216;28;20472;-82
2024/03/01 02:37:02;;;;;;;17.73;10.07;;;8.10;99.90;;;;;;5064461;28;20457;-82
2024/03/01 02:39:29;;;;;;;13.13;7.73;;;8.10;99.90;;;;;;5060493;28;20530;-82
2024/03/01 02:41:57;;;;;;;15.50;8.23;;;8.10;99.90;;;;;;5060419;28;20465;-83
2024/03/01 02:44:24;;;;;;;13.90;8.60;;;8.00;99.90;;;;;;5061320;28;20467;-80
2024/03/01 02:46:51;;;;;;;12.27;8.37;;;8.00;99.90;;;;;;5056655;28;20461;-81
2024/03/01 02:49:18;;;;;;;16.07;8.77;;;7.90;99.90;;;;;;5055328;28;20447;-80
2024/03/01 02:51:45;;;;;;;12.87;8.80;;;7.90;99.90;;;;;;5058234;28;20506;-81
2024/03/01 02:54:12;;;;;;;17.00;9.00;;;7.90;99.90;;;;;;5054647;28;20848;-81
2024/03/01 02:56:39;;;;;;;14.00;8.57;;;7.90;99.90;;;;;;5053780;28;20457;-81
2024/03/01 02:59:10;;;;;;;15.10;8.87;;;7.90;99.90;;;;;;5054044;28;20449;-81
2024/03/01 03:01:36;;;;;;;14.27;8.10;;;8.00;99.90;;;;;;5053345;28;20501;-78
2024/03/01 03:04:03;;;;;;;18.10;9.87;;;8.10;99.90;;;;;;5052777;28;20482;-81
2024/03/01 03:06:30;;;;;;;14.10;9.37;;;8.20;99.90;;;;;;5053175;28;20840;-80
2024/03/01 03:08:57;;;;;;;13.20;8.00;;;8.20;99.90;;;;;;5053524;28;20477;-80
2024/03/01 03:11:23;;;;;;;15.07;9.20;;;8.20;99.90;;;;;;5052997;28;20451;-81
2024/03/01 03:13:50;;;;;;;13.23;8.47;;;8.20;99.90;;;;;;5052902;28;20474;-81
2024/03/01 03:16:18;;;;;;;15.07;8.40;;;8.10;99.90;;;;;;5052821;28;20969;-82
2024/03/01 03:18:45;;;;;;;13.23;8.07;;;8.10;99.90;;;;;;5055015;28;20461;-81
2024/03/01 03:21:12;;;;;;;14.30;10.20;;;8.20;99.90;;;;;;5052976;28;20486;-82
2024/03/01 03:23:39;;;;;;;15.20;9.23;;;8.20;99.90;;;;;;5052754;28;20525;-82
2024/03/01 03:26:06;;;;;;;18.40;10.00;;;8.10;99.90;;;;;;5052735;28;20454;-82
2024/03/01 03:28:33;;;;;;;15.97;9.33;;;8.00;99.90;;;;;;5053191;28;20459;-81
2024/03/01 03:31:00;;;;;;;15.50;8.77;;;8.00;99.90;;;;;;5053447;28;20450;-81
2024/03/01 03:33:28;;;;;;;17.53;9.40;;;8.00;99.90;;;;;;5052822;28;20694;-82
2024/03/01 03:35:54;;;;;;;16.60;9.70;;;8.00;99.90;;;;;;5053996;28;20451;-80
2024/03/01 03:38:21;;;;;;;15.80;9.07;;;8.00;99.90;;;;;;5052885;28;20474;-81
2024/03/01 03:40:48;;;;;;;15.70;9.53;;;7.90;99.90;;;;;;5053114;28;21005;-81
2024/03/01 03:43:15;;;;;;;16.80;10.00;;;7.90;99.90;;;;;;5052819;28;20475;-81
2024/03/01 03:45:44;;;;;;;14.50;8.70;;;7.80;99.90;;;;;;5053208;28;20466;-81
2024/03/01 03:48:11;;;;;;;17.63;9.67;;;7.80;99.90;;;;;;5053666;28;20482;-82
2024/03/01 03:50:39;;;;;;;13.73;10.03;;;7.80;99.90;;;;;;5053469;28;20454;-81
2024/03/01 03:53:06;;;;;;;18.80;10.60;;;7.70;99.90;;;;;;5052638;28;20478;-81
2024/03/01 03:55:33;;;;;;;15.57;9.33;;;7.60;99.90;;;;;;5052428;28;20524;-81
2024/03/01 03:58:00;;;;;;;15.40;9.77;;;7.70;99.90;;;;;;5052171;28;20458;-82
2024/03/01 04:00:27;;;;;;;16.50;9.97;;;7.70;99.90;;;;;;5052932;28;20497;-81
2024/03/01 04:02:53;;;;;;;16.00;9.50;;;7.70;99.90;;;;;;5053228;28;21003;-80
2024/03/01 04:05:20;;;;;;;16.43;8.60;;;7.70;99.90;;;;;;5053396;28;20462;-83
2024/03/01 04:07:48;;;;;;;15.40;9.77;;;7.70;99.90;;;;;;5052514;28;20459;-80
2024/03/01 04:10:15;;;;;;;17.57;9.00;;;7.60;99.90;;;;;;5054050;28;20852;-81
2024/03/01 04:12:42;;;;;;;16.93;9.33;;;7.60;99.90;;;;;;5052360;28;20473;-81
2024/03/01 04:15:09;;;;;;;14.07;8.80;;;7.70;99.90;;;;;;5052380;28;20558;-81
2024/03/01 04:17:36;;;;;;;19.50;10.10;;;7.70;99.90;;;;;;5052068;28;20542;-80
2024/03/01 04:20:04;;;;;;;14.60;9.53;;;7.70;99.90;;;;;;5053437;28;20457;-81
2024/03/01 04:22:31;;;;;;;16.30;8.60;;;7.70;99.90;;;;;;5053170;28;20466;-81
2024/03/01 04:25:00;;;;;;;15.43;9.50;;;7.60;99.90;;;;;;5053427;28;20480;-81
2024/03/01 04:27:27;;;;;;;18.60;10.00;;;7.60;99.90;;;;;;5052093;28;20456;-81
2024/03/01 04:29:53;;;;;;;16.33;8.13;;;7.60;99.90;;;;;;5053393;28;20466;-79
2024/03/01 04:32:20;;;;;;;13.67;8.00;;;7.50;99.90;;;;;;5056630;28;21101;-81
2024/03/01 04:34:47;;;;;;;13.87;8.10;;;7.60;99.90;;;;;;5057050;28;20470;-82
2024/03/01 04:37:14;;;;;;;13.40;8.50;;;7.50;99.90;;;;;;5056182;28;20455;-81
2024/03/01 04:39:41;;;;;;;12.80;8.20;;;7.60;99.90;;;;;;5056851;28;20457;-78
2024/03/01 04:42:09;;;;;;;14.90;9.10;;;7.60;99.90;;;;;;5057002;28;20494;-81
2024/03/01 04:44:41;;;;;;;15.53;9.43;;;7.50;99.90;;;;;;5056456;28;21102;-81
2024/03/01 04:47:08;;;;;;;15.40;8.77;;;7.50;99.90;;;;;;5055708;28;20465;-82
2024/03/01 04:49:34;;;;;;;13.87;8.73;;;7.50;99.90;;;;;;5056146;28;20445;-81
2024/03/01 04:52:01;;;;;;;14.63;9.50;;;7.60;99.90;;;;;;5056421;28;20561;-81
2024/03/01 04:54:28;;;;;;;16.60;7.67;;;7.70;99.90;;;;;;5056600;28;20487;-81
2024/03/01 04:56:55;;;;;;;12.73;7.90;;;7.80;99.90;;;;;;5055902;28;20469;-81
2024/03/01 04:59:24;;;;;;;13.67;8.20;;;7.80;99.90;;;;;;5055584;28;20950;-81
2024/03/01 05:01:50;;;;;;;15.40;9.17;;;7.90;99.90;;;;;;5056097;28;20528;-82
2024/03/01 05:04:17;;;;;;;11.87;8.23;;;7.90;99.90;;;;;;5056232;28;20483;-80
2024/03/01 05:06:44;;;;;;;14.50;8.87;;;7.90;99.90;;;;;;5055920;28;20459;-82
2024/03/01 05:09:15;;;;;;;12.60;7.53;;;7.80;99.90;;;;;;5056368;28;20554;-82
2024/03/01 05:11:44;;;;;;;16.20;8.10;;;7.80;99.90;;;;;;5056169;28;20448;-80
2024/03/01 05:14:11;;;;;;;13.40;8.80;;;7.70;99.90;;;;;;5056269;28;20850;-81
2024/03/01 05:16:39;;;;;;;14.13;8.67;;;7.70;99.90;;;;;;5056094;28;20499;-81
2024/03/01 05:19:06;;;;;;;12.50;7.67;;;7.60;99.90;;;;;;5056694;28;20454;-80
2024/03/01 05:21:33;;;;;;;11.70;7.50;;;7.60;99.90;;;;;;5055900;28;20501;-81
2024/03/01 05:23:59;;;;;;;11.23;7.63;;;7.50;99.90;;;;;;5055966;28;20970;-81
2024/03/01 05:26:26;;;;;;;11.60;8.03;;;7.50;99.90;;;;;;5055554;28;20455;-82
2024/03/01 05:28:53;;;;;;;12.50;7.40;;;7.40;99.90;;;;;;5055955;28;20448;-81
2024/03/01 05:31:20;;;;;;;13.67;8.63;;;7.40;99.90;;;;;;5055733;28;20457;-81
2024/03/01 05:33:48;;;;;;;11.27;7.43;;;7.40;99.90;;;;;;5056324;28;20500;-81
2024/03/01 05:36:16;;;;;;;10.83;7.27;;;7.50;99.90;;;;;;5055595;28;20461;-81
2024/03/01 05:38:43;;;;;;;10.17;7.60;;;7.50;99.90;;;;;;5055642;28;20457;-82
2024/03/01 05:41:11;;;;;;;9.10;6.30;;;7.50;99.90;;;;;;5055646;28;20605;-81
2024/03/01 05:43:40;;;;;;;9.13;5.50;;;7.60;99.90;;;;;;5054843;28;20464;-81
2024/03/01 05:46:14;;;;;;;8.90;5.90;;;7.70;99.90;;;;;;5057617;28;20453;-81
2024/03/01 05:48:41;;;;;;;10.23;6.70;;;7.90;99.90;;;;;;5057459;28;20454;-80
2024/03/01 05:51:11;;;;;;;9.83;6.37;;;8.00;99.90;;;;;;5057046;28;20541;-81
2024/03/01 05:53:38;;;;;;;10.17;6.77;;;8.20;99.90;;;;;;5056242;28;21002;-83
2024/03/01 05:56:17;;;;;;;8.20;5.23;;;8.40;99.90;;;;;;5057238;28;20466;-82
2024/03/01 05:58:45;;;;;;;8.87;5.60;;;8.40;99.90;;;;;;5057548;28;20455;-81
2024/03/01 06:01:12;;;;;;;9.17;6.20;;;8.50;99.90;;;;;;5057520;28;20494;-82
2024/03/01 06:03:39;;;;;;;10.23;6.47;;;8.60;99.90;;;;;;5057740;28;20468;-81
2024/03/01 06:06:08;;;;;;;8.90;6.00;;;8.70;99.90;;;;;;5057808;28;20462;-81
2024/03/01 06:08:36;;;;;;;8.90;6.13;;;8.70;99.90;;;;;;5058516;28;20834;-81
2024/03/01 06:11:04;;;;;;;12.20;7.80;;;8.70;99.90;;;;;;5057698;28;20451;-81
2024/03/01 06:13:31;;;;;;;9.70;6.10;;;8.70;99.90;;;;;;5057642;28;20487;-81
2024/03/01 06:15:58;;;;;;;10.47;7.00;;;8.70;99.90;;;;;;5057871;28;20462;-82
2024/03/01 06:18:25;;;;;;;9.83;6.33;;;8.80;99.90;;;;;;5058705;28;20458;-81
2024/03/01 06:20:52;;;;;;;11.80;6.90;;;8.80;99.90;;;;;;5057832;28;21571;-81
2024/03/01 06:23:18;;;;;;;10.37;5.97;;;8.80;99.90;;;;;;5060118;28;20475;-82
2024/03/01 06:25:47;;;;;;;9.43;6.17;;;8.80;99.90;;;;;;5063763;28;20894;-79
2024/03/01 06:28:14;;;;;;;11.47;6.20;;;8.90;99.90;;;;;;5062991;28;20505;-81
2024/03/01 06:30:42;;;;;;;9.77;5.63;;;8.90;99.90;;;;;;5056529;28;20474;-80
2024/03/01 06:33:08;;;;;;;9.47;6.30;;;9.00;99.90;;;;;;5063058;28;20463;-82
2024/03/01 06:35:35;;;;;;;11.33;5.90;;;9.10;99.90;;;;;;5057761;28;20461;-82
2024/03/01 06:38:03;;;;;;;9.23;6.10;;;9.10;99.90;;;;;;5061690;28;20849;-82
2024/03/01 06:40:30;;;;;;;10.00;5.93;;;9.20;99.90;;;;;;5060882;28;20893;-81
2024/03/01 06:42:58;;;;;;;7.87;5.50;;;9.20;99.90;;;;;;5065544;28;20486;-83
2024/03/01 06:45:25;;;;;;;11.03;6.60;;;9.20;99.90;;;;;;5061794;28;20458;-82
2024/03/01 06:47:52;;;;;;;10.00;6.07;;;9.40;99.90;;;;;;5061671;28;20470;-82
2024/03/01 06:50:19;;;;;;;8.87;6.10;;;9.40;99.90;;;;;;5062455;28;20458;-81
2024/03/01 06:52:45;;;;;;;11.30;7.00;;;9.20;99.90;;;;;;5061122;28;20444;-81
2024/03/01 06:55:12;;;;;;;10.20;6.00;;;9.40;99.90;;;;;;5060417;28;20566;-80
2024/03/01 06:57:39;;;;;;;8.40;5.70;;;9.40;99.90;;;;;;5059960;28;20531;-80
2024/03/01 07:00:09;;;;;;;9.70;7.33;;;9.50;99.90;;;;;;5060282;28;20456;-81
2024/03/01 07:02:36;;;;;;;8.10;6.03;;;9.50;99.90;;;;;;5063091;28;20492;-80
2024/03/01 07:05:03;;;;;;;9.50;6.30;;;9.40;99.90;;;;;;5059035;28;20450;-81
2024/03/01 07:07:30;;;;;;;8.50;6.10;;;;;;;;;;5061131;28;20458;-82
2024/03/01 07:09:57;;;;;;;9.90;6.87;;;;;;;;;;5062990;28;20519;-82
2024/03/01 07:12:24;;;;;;;11.20;6.40;;;;;;;;;;5063287;28;20439;-83
2024/03/01 07:14:52;;;;;;;10.53;6.30;;;;;;;;;;5062572;28;20539;-83
2024/03/01 07:17:20;;;;;;;11.90;7.53;;;9.40;99.90;;;;;;5058105;28;20512;-81
2024/03/01 07:19:46;;;;;;;8.83;6.43;;;9.20;99.90;;;;;;5057597;28;20545;-80
2024/03/01 07:22:13;;;;;;;13.40;8.53;;;9.50;99.90;;;;;;5054521;28;20507;-81
2024/03/01 07:24:41;;;;;;;9.83;7.60;;;9.10;99.90;;;;;;5057135;28;20470;-81
2024/03/01 07:27:08;;;;;;;10.87;7.30;;;9.30;99.90;;;;;;5056727;28;20485;-82
2024/03/01 07:29:35;;;;;;;11.17;7.10;;;9.30;99.90;;;;;;5057578;28;20461;-81
2024/03/01 07:32:02;;;;;;;14.33;8.40;;;9.30;99.90;;;;;;5057716;28;20832;-81
2024/03/01 07:34:30;;;;;;;10.07;7.40;;;9.20;99.90;;;;;;5057053;28;20477;-80
2024/03/01 07:36:58;;;;;;;8.07;6.17;;;9.10;99.90;;;;;;5053592;28;20555;-80
2024/03/01 07:39:24;;;;;;;8.60;6.00;;;9.10;99.90;;;;;;5054683;28;20555;-81
2024/03/01 07:41:51;;;;;;;8.37;4.20;;;9.00;99.90;;;;;;5053983;28;20480;-80
2024/03/01 07:44:18;;;;;;;4.73;2.80;;;8.80;99.90;;;;;;5055095;28;20991;-81
2024/03/01 07:46:45;;;;;;;4.00;2.50;;;8.80;99.90;;;;;;5055202;28;20481;-81
2024/03/01 07:49:12;;;;;;;2.73;1.50;;;8.80;99.90;;;;;;5056961;28;20808;-81
2024/03/01 07:51:40;;;;;;;4.00;1.83;;;8.70;99.90;;;;;;5056155;28;20451;-80
2024/03/01 07:54:08;;;;;;;3.07;1.70;;;8.60;99.90;;;;;;5064565;28;20470;-80
2024/03/01 07:56:36;;;;;;;2.83;1.57;;;8.60;99.90;;;;;;5066869;28;20448;-81
2024/03/01 07:59:04;;;;;;;6.73;2.03;;;8.60;99.90;;;;;;5064964;28;20544;-81
2024/03/01 08:01:31;;;;;;;3.07;2.30;;;8.60;99.90;;;;;;5064547;28;20881;-80
2024/03/01 08:03:58;;;;;;;2.97;1.90;;;8.50;99.90;;;;;;5062077;28;20558;-80
2024/03/01 08:06:25;;;;;;;5.50;1.80;;;8.40;99.90;;;;;;5063689;28;20529;-82
2024/03/01 08:08:53;;;;;;;8.10;1.70;;;8.30;99.90;;;;;;5066550;28;20464;-81
2024/03/01 08:11:36;;;;;;;3.30;1.90;;;8.40;99.90;;;;;;5064501;28;20455;-79
2024/03/01 08:14:06;;;;;;;3.70;2.23;;;8.30;99.90;;;;;;5065399;28;20469;-81
2024/03/01 08:16:33;;;;;;;2.63;1.53;;;8.30;99.90;;;;;;5062586;28;20462;-80
2024/03/01 08:18:59;;;;;;;2.40;2.07;;;8.40;99.90;;;;;;5066104;28;20492;-79
2024/03/01 08:21:27;;;;;;;3.80;2.10;;;8.30;99.90;;;;;;5063362;28;20449;-81
2024/03/01 08:23:55;;;;;;;4.90;2.37;;;8.30;99.90;;;;;;5066346;28;20476;-79
2024/03/01 08:26:24;;;;;;;4.30;2.70;;;8.30;99.90;;;;;;5063586;28;20519;-80
2024/03/01 08:28:51;;;;;;;4.80;3.13;;;8.20;99.90;;;;;;5065464;28;20827;-81
2024/03/01 08:31:26;;;;;;;4.30;3.00;;;8.30;99.90;;;;;;5065108;28;20450;-80
2024/03/01 08:34:00;;;;;;;5.10;3.60;;;8.20;99.90;;;;;;5063167;28;20984;-81
2024/03/01 08:36:27;;;;;;;5.03;3.90;;;8.10;99.90;;;;;;5063930;28;20479;-81
2024/03/01 08:39:10;;;;;;;7.67;4.33;;;8.20;99.90;;;;;;5062766;28;20454;-80
2024/03/01 08:41:38;;;;;;;7.33;4.33;;;8.20;99.90;;;;;;5060622;28;20452;-80
2024/03/01 08:44:24;;;;;;;7.20;4.77;;;8.20;99.90;;;;;;5051506;28;20567;-81
2024/03/01 08:46:52;;;;;;;8.23;4.47;;;8.20;99.90;;;;;;5057391;28;20461;-80
2024/03/01 08:50:10;;;;;;;7.00;4.57;;;8.20;99.90;;;;;;5060423;28;20439;-80
2024/03/01 08:52:38;;;;;;;7.87;4.77;;;8.30;99.90;;;;;;5055157;28;20557;-78
2024/03/01 08:55:50;;;;;;;7.83;5.37;;;8.20;99.90;;;;;;5055870;28;20950;-79
2024/03/01 08:58:23;;;;;;;11.20;6.97;;;8.30;99.90;;;;;;5056584;28;20541;-80
2024/03/01 09:00:52;;;;;;;9.60;6.47;;;8.30;99.90;;;;;;5057006;28;20450;-80
2024/03/01 09:03:23;;;;;;;6.50;4.53;;;8.30;99.90;;;;;;5058798;28;20493;-81
2024/03/01 09:05:53;;;;;;;8.67;4.80;;;8.30;99.90;;;;;;5056407;28;20817;-80
2024/03/01 09:08:26;;;;;;;7.07;5.13;;;8.40;99.90;;;;;;5061046;28;20820;-80
2024/03/01 09:10:55;;;;;;;7.43;5.30;;;8.50;99.90;;;;;;5055943;28;20989;-79
2024/03/01 09:13:23;;;;;;;4.77;3.60;;;8.60;99.90;;;;;;5063017;28;20546;-79
2024/03/01 09:15:51;;;;;;;8.67;4.73;;;8.50;99.90;;;;;;5059541;28;20449;-79
2024/03/01 09:18:42;;;;;;;6.23;4.03;;;8.40;99.90;;;;;;5059347;28;20538;-80
2024/03/01 09:21:39;;;;;;;5.57;4.47;;;8.50;99.90;;;;;;5061475;28;20458;-79
2024/03/01 09:24:12;;;;;;;4.50;3.50;;;8.60;99.90;;;;;;5060859;28;21268;-79
2024/03/01 09:26:43;;;;;;;5.73;3.90;;;8.80;99.90;;;;;;5059982;28;20463;-80
2024/03/01 09:29:31;;;;;;;3.77;2.63;;;9.50;99.90;;;;;;5060656;28;20472;-79
2024/03/01 09:31:59;;;;;;;4.50;3.30;;;8.50;99.90;;;;;;5058731;28;20984;-80
2024/03/01 09:34:30;;;;;;;3.73;2.77;;;8.80;99.90;;;;;;5059592;28;20496;-81
2024/03/01 09:36:58;;;;;;;2.93;1.73;;;8.60;99.90;;;;;;5059128;28;20451;-81
2024/03/01 09:39:24;;;;;;;4.00;2.10;;;8.90;99.90;;;;;;5059949;28;20538;-80
2024/03/01 09:42:04;;;;;;;2.80;2.20;;;9.20;99.90;;;;;;5068571;28;20514;-80
2024/03/01 09:44:46;;;;;;;3.60;2.03;;;9.90;99.90;;;;;;5071307;28;20500;-80
2024/03/01 09:47:21;;;;;;;3.10;2.47;;;10.20;99.90;;;;;;5071624;28;20450;-80
2024/03/01 09:50:03;;;;;;;2.70;1.90;;;10.60;99.90;;;;;;5055332;28;20795;-83
2024/03/01 09:52:41;;;;;;;4.17;2.57;;;10.90;99.90;;;;;;5063356;28;20523;-80
2024/03/01 09:55:17;;;;;;;2.70;1.97;;;11.00;99.90;;;;;;5066000;28;20469;-80
2024/03/01 09:57:58;;;;;;;2.80;2.00;;;11.10;99.90;;;;;;5061057;28;20532;-81
2024/03/01 10:00:31;;;;;;;2.80;2.03;;;10.90;99.90;;;;;;5061452;28;20445;-81
2024/03/01 10:03:11;;;;;;;3.80;1.83;;;10.90;99.90;;;;;;5061105;28;20500;-82
2024/03/01 10:05:59;;;;;;;3.83;1.90;;;10.90;99.90;;;;;;5060823;28;20544;-81
2024/03/01 10:08:35;;;;;;;2.70;2.00;;;11.20;99.90;;;;;;5061212;28;20462;-81
2024/03/01 10:11:20;;;;;;;2.43;1.80;;;11.40;99.90;;;;;;5060434;28;20462;-81
2024/03/01 10:14:00;;;;;;;3.17;1.70;;;12.10;99.90;;;;;;5058424;28;20555;-82
2024/03/01 10:16:50;;;;;;;2.47;1.67;;;12.60;99.90;;;;;;5058027;28;20476;-81
2024/03/01 10:19:39;;;;;;;3.43;1.87;;;12.90;99.90;;;;;;5055087;28;20521;-81
2024/03/01 10:22:21;;;;;;;4.20;1.97;;;12.90;99.90;;;;;;5055435;28;21090;-79
2024/03/01 10:25:11;;;;;;;2.50;1.80;;;12.60;99.90;;;;;;5052323;28;20569;-81
2024/03/01 10:27:40;;;;;;;2.50;1.90;;;12.40;99.90;;;;;;5057318;28;20454;-82
2024/03/01 10:30:12;;;;;;;3.53;1.97;;;12.20;99.90;;;;;;5057295;28;20558;-82
2024/03/01 10:33:01;;;;;;;3.20;2.70;;;11.60;99.90;;;;;;5059244;28;20477;-82
2024/03/01 10:35:38;;;;;;;3.73;1.67;;;11.70;99.90;;;;;;5057907;28;20451;-82
2024/03/01 10:38:12;;;;;;;3.03;2.07;;;12.10;99.90;;;;;;5058292;28;20537;-80
2024/03/01 10:40:47;;;;;;;2.90;1.90;;;12.80;99.90;;;;;;5058051;28;21015;-82
2024/03/01 10:43:20;;;;;;;3.93;2.00;;;12.90;99.90;;;;;;5059785;28;20533;-82
2024/03/01 10:46:00;;;;;;;2.53;1.80;;;12.80;99.90;;;;;;5058692;28;20452;-80
2024/03/01 10:48:33;;;;;;;3.40;2.20;;;13.30;99.90;;;;;;5058223;28;20449;-82
2024/03/01 10:51:01;;;;;;;2.73;1.80;;;14.00;99.90;;;;;;5058720;28;20543;-81
2024/03/01 10:53:31;;;;;;;2.53;1.47;;;14.20;99.90;;;;;;5055131;28;20470;-81
2024/03/01 10:56:04;;;;;;;2.87;1.80;;;14.90;99.90;;;;;;5055469;28;21328;-81
2024/03/01 10:58:38;;;;;;;2.43;1.73;;;14.30;99.90;;;;;;5054973;28;20450;-80
2024/03/01 11:01:19;;;;;;;4.50;2.10;;;14.20;99.90;;;;;;5056239;28;20457;-79
2024/03/01 11:03:50;;;;;;;2.23;1.30;;;14.50;99.90;;;;;;5057899;28;20588;-79
2024/03/01 11:13:00;;;;;;;2.97;1.50;;;14.40;99.90;;;;;;5002264;28;20542;-80
2024/03/01 11:15:30;;;;;;;3.43;1.70;;;14.30;99.90;;;;;;5055784;28;20510;-80
2024/03/01 11:18:04;;;;;;;2.93;1.70;;;14.60;99.90;;;;;;5054047;28;20525;-80
2024/03/01 11:20:40;;;;;;;2.30;1.60;;;14.60;99.90;;;;;;5055033;28;20450;-80
2024/03/01 11:23:14;;;;;;;3.53;2.43;;;14.60;99.90;;;;;;5053155;28;20530;-80
2024/03/01 11:25:48;;;;;;;4.47;1.97;;;14.70;99.90;;;;;;5054611;28;20471;-80
2024/03/01 11:28:18;;;;;;;2.63;1.73;;;15.30;99.90;;;;;;5052821;28;20505;-80
2024/03/01 11:30:50;;;;;;;2.60;1.80;;;15.20;99.90;;;;;;5053741;28;20463;-80
2024/03/01 11:33:22;;;;;;;4.13;1.47;;;16.30;99.90;;;;;;5053165;28;20459;-80
2024/03/01 11:35:57;;;;;;;2.30;1.67;;;18.80;99.60;;;;;;5055030;28;20539;-81
2024/03/01 11:38:28;;;;;;;2.10;1.60;;;20.40;93.70;;;;;;5055991;28;20477;-80
2024/03/01 11:41:10;;;;;;;1.90;1.23;;;19.80;90.70;;;;;;5052386;28;20509;-81
2024/03/01 11:43:48;;;;;;;3.23;1.33;;;22.00;89.60;;;;;;5053640;28;20523;-81
2024/03/01 11:46:34;;;;;;;3.30;1.50;;;20.80;85.20;;;;;;5052636;28;20516;-81
2024/03/01 11:49:15;;;;;;;2.10;1.27;;;20.00;83.30;;;;;;5054328;28;20527;-82
2024/03/01 11:51:49;;;;;;;2.13;1.30;;;17.30;84.60;;;;;;5053448;28;20451;-79
2024/03/01 11:54:34;;;;;;;1.60;0.93;;;17.20;87.50;;;;;;5050700;28;20481;-80
2024/03/01 11:57:14;;;;;;;1.60;1.00;;;18.90;89.80;;;;;;5053273;28;20445;-81
2024/03/01 11:59:56;;;;;;;1.60;0.80;;;21.50;83.20;;;;;;5053991;28;20451;-81
2024/03/01 12:02:38;;;;;;;1.60;0.93;;;20.80;79.50;;;;;;5053271;28;20535;-79
2024/03/01 12:05:19;;;;;;;2.17;0.90;;;19.70;80.90;;;;;;5053978;28;20443;-80
2024/03/01 12:08:17;;;;;;;1.73;0.90;;;19.50;81.00;;;;;;5053202;28;20470;-80
2024/03/01 12:10:58;;;;;;;1.80;0.80;;;18.00;81.40;;;;;;5053324;28;20482;-80
2024/03/01 12:13:25;;;;;;;1.40;0.70;;;17.50;85.00;;;;;;5049582;28;20482;-80
2024/03/01 12:16:07;;;;;;;1.60;0.70;;;18.90;82.80;;;;;;5050721;28;20515;-81
2024/03/01 12:18:39;;;;;;;1.50;0.70;;;20.30;78.70;;;;;;5052811;28;20456;-79
2024/03/01 12:21:22;;;;;;;1.50;0.70;;;21.60;80.30;;;;;;5053989;28;20442;-81
2024/03/01 12:24:10;;;;;;;1.50;0.73;;;22.70;78.10;;;;;;5053803;28;20487;-80
2024/03/01 12:26:47;;;;;;;1.63;0.63;;;24.10;73.40;;;;;;5051866;28;22294;-79
2024/03/01 12:29:28;;;;;;;2.57;0.80;;;23.30;72.30;;;;;;5055306;28;20534;-80
2024/03/01 12:32:04;;;;;;;2.63;0.80;;;23.00;70.60;;;;;;5055256;28;21017;-79
2024/03/01 12:34:42;;;;;;;1.70;0.70;;;23.10;70.40;;;;;;5053046;28;20550;-79
2024/03/01 12:37:30;;;;;;;1.87;0.93;;;23.50;69.20;;;;;;5052237;28;21102;-79
2024/03/01 12:40:10;;;;;;;1.70;0.70;;;21.50;67.50;;;;;;5054958;28;20519;-80
2024/03/01 12:42:48;;;;;;;1.60;0.80;;;23.00;69.70;;;;;;5054215;28;20460;-79
2024/03/01 12:45:27;;;;;;;1.90;1.00;;;23.00;70.40;;;;;;5054724;28;20547;-81
2024/03/01 12:48:04;;;;;;;2.40;0.97;;;24.30;69.80;;;;;;5054296;28;20492;-80
2024/03/01 12:51:06;;;;;;;1.73;0.90;;;25.30;67.60;;;;;;5055093;28;20475;-81
2024/03/01 12:53:49;;;;;;;2.07;1.00;;;25.10;65.80;;;;;;5050216;28;20479;-81
2024/03/01 12:56:28;;;;;;;2.70;1.40;;;23.80;81.50;;;;;;5059192;28;20432;-82
2024/03/01 12:59:09;;;;;;;2.20;1.10;;;23.70;79.70;;;;;;5063012;28;20454;-82
2024/03/01 13:01:45;;;;;;;1.60;0.83;;;23.60;83.70;;;;;;5059222;28;20875;-82
2024/03/01 13:04:33;;;;;;;2.97;1.30;;;24.20;66.10;;;;;;5058499;28;20514;-81
2024/03/01 13:07:01;;;;;;;1.53;0.80;;;24.00;65.00;;;;;;5055656;28;20447;-81
2024/03/01 13:09:33;;;;;;;2.00;1.00;;;24.60;68.00;;;;;;5059114;28;20519;-82
2024/03/01 13:12:05;;;;;;;2.53;1.20;;;24.40;64.60;;;;;;5054062;28;20455;-82
2024/03/01 13:14:41;;;;;;;1.90;1.10;;;24.30;64.10;;;;;;5055393;28;20478;-82
2024/03/01 13:17:17;;;;;;;1.60;1.20;;;23.50;62.70;;;;;;5056710;28;20450;-81